Here is the Quick Look data you requested

The Data originates at the National Weather Service, and is made available here by the UAlbany Department of Atmospheric and Environmental Sciences

Surface Observations

K40B 261516Z AUTO 17014G23KT 090V180 19/17 A2982 RMK AO1 SLP097 T01860171 57020
K8B0 261455Z AUTO 00000KT 10SM -RA BKN024 BKN030 OVC042 17/16 A2995 RMK AO2
 P0001=
KAUG 261453Z AUTO 20005KT 6SM BR OVC002 19/19 A2997 RMK AO2 SLP147 T01940194
 58007=
KBGR 261453Z 19009KT 4SM BR OVC005 20/19 A2995 RMK AO2 RAB18E42 SLP141 P0000
 60000 T02000189 58007=
KBHB 261456Z AUTO 20012KT 1/2SM -RA FG OVC002 18/18 A2999 RMK AO2 RAB25 SLP159
 P0000 60000 T01830178 58005 RVRNO=
KCAR 261454Z AUTO 18009KT 10SM -RA OVC009 18/17 A2985 RMK AO2 RAB40 CIG 006V012
 SLP112 P0000 60000 T01830167 56023=
KFVE 261453Z AUTO 17010KT 1/4SM FG VV002 17/15 A2983 RMK AO2 RAE1354B36E50
 SLP099 P0001 60001 T01670150 56023=
KGNR 261456Z AUTO VRB05KT 17/17 A2990 RMK AO1 SLP126 T01720172 58013=
KHUL 261453Z AUTO 22006KT 4SM BR OVC006 19/19 A2990 RMK AO2 SLP125 60000
 T01890189 56013=
KIWI 261453Z AUTO 20007KT 8SM OVC002 20/20 A2998 RMK AO2 SLP153 T02000200 58007=
KIZG 261454Z AUTO 00000KT 10SM BKN014 20/18 A2996 RMK AO2 SLP144 T02000183
 58012=
KLEW 261456Z AUTO 20009KT 10SM 22/21 A2996 RMK AO2 SLP158 T02170206 58008=
KMLT 261453Z AUTO VRB06KT 2SM BR BKN008 OVC011 19/18 A2991 RMK AO2 SLP134
 T01890178 58010 TSNO=
KPQI 261456Z AUTO 20012KT 10SM OVC011 19/17 A2987 RMK AO2 RAB08E22 SLP155 P0000
 60000 T01940172 56022=
KPWM 261451Z 20006KT 10SM OVC012 22/21 A2997 RMK AO2 SLP147 T02220211 58007=
KRKD 261456Z AUTO 22007KT 4SM BR OVC001 19/19 A2998 RMK AO2 SLP153 T01890189
 56007=
KSFM 261456Z AUTO 21009KT 10SM BKN010 OVC015 23/22 A2997 RMK AO2 CIG 007V013
 SLP148 T02330217 58010=
KWVL 261456Z AUTO VRB04KT 1 3/4SM BR OVC002 19/19 A2993 RMK AO2 SLP161
 T01890189 58006 $=